Time;durP1;ratioP1;P1;durP2;ratioP2;P2;SDS_P1;SDS_P2;PMS_P1;PMS_P2;Temp;Humidity;BMP_temperature;BMP_pressure;BME280_temperature;BME280_humidity;BME280_pressure;Samples;Min_cycle;Max_cycle;Signal;HPM_P1;HPM_P2
2022/04/15 00:00:42;;;;;;;25.10;4.93;;;;;;;4.42;67.37;99727.34;4968788;28;20185;-63
2022/04/15 00:03:08;;;;;;;19.52;4.28;;;;;;;4.34;67.80;99719.03;4970742;28;20042;-63
2022/04/15 00:05:40;;;;;;;28.58;4.78;;;;;;;4.37;68.10;99742.91;4972735;28;20047;-63
2022/04/15 00:08:11;;;;;;;16.67;4.80;;;;;;;4.31;68.66;99736.19;4973521;28;20047;-63
2022/04/15 00:10:45;;;;;;;19.08;4.35;;;;;;;4.30;68.96;99737.13;4974232;28;20146;-63
2022/04/15 00:13:12;;;;;;;20.77;5.07;;;;;;;4.24;69.43;99736.69;4957439;28;20042;-63
2022/04/15 00:15:38;;;;;;;18.35;4.60;;;;;;;4.21;69.82;99736.94;4972324;28;20058;-62
2022/04/15 00:18:05;;;;;;;23.20;4.70;;;;;;;4.11;70.69;99721.53;4985926;28;20262;-62
2022/04/15 00:20:31;;;;;;;26.35;5.30;;;;;;;4.04;70.92;99708.69;4972457;28;20494;-63
2022/04/15 00:22:58;;;;;;;24.35;5.63;;;;;;;4.15;71.17;99721.31;4956280;28;20055;-62
2022/04/15 00:25:24;;;;;;;18.02;5.07;;;;;;;4.06;71.33;99722.81;4972097;28;20042;-62
2022/04/15 00:27:51;;;;;;;17.70;4.70;;;;;;;4.06;70.95;99721.00;4972350;28;20127;-63
2022/04/15 00:30:16;;;;;;;18.55;4.63;;;;;;;4.15;70.59;99726.66;4972390;28;20082;-62
2022/04/15 00:32:42;;;;;;;22.10;4.55;;;;;;;4.00;70.33;99688.47;4972193;28;20047;-63
2022/04/15 00:35:09;;;;;;;23.80;5.03;;;;;;;4.21;69.94;99716.38;4972372;28;20091;-62
2022/04/15 00:37:35;;;;;;;18.92;4.85;;;;;;;4.22;69.36;99717.22;4973502;28;20133;-61
2022/04/15 00:40:02;;;;;;;15.18;4.18;;;;;;;4.22;68.96;99719.91;4973401;28;20136;-62
2022/04/15 00:42:29;;;;;;;17.17;4.47;;;;;;;4.21;68.93;99716.38;4973463;28;20090;-63
2022/04/15 00:44:56;;;;;;;12.65;3.90;;;;;;;4.10;69.06;99698.41;4988147;28;20058;-64
2022/04/15 00:47:57;;;;;;;14.60;4.03;;;;;;;4.17;69.31;99716.69;4973411;28;20190;-63
2022/04/15 00:50:34;;;;;;;13.00;4.38;;;;;;;4.10;69.23;99718.97;4973460;28;20049;-63
2022/04/15 00:53:09;;;;;;;17.00;4.70;;;;;;;4.04;70.06;99696.16;4939829;28;20047;-62
2022/04/15 00:55:36;;;;;;;17.02;3.88;;;;;;;4.06;69.50;99691.56;4972214;28;20098;-62
2022/04/15 00:58:05;;;;;;;21.48;4.25;;;;;;;4.24;68.48;99715.28;4987609;28;20066;-62
2022/04/15 01:00:32;;;;;;;24.45;4.05;;;;;;;4.28;69.39;99719.47;4971668;28;20101;-63
2022/04/15 01:03:01;;;;;;;22.08;6.13;;;;;;;4.29;69.68;99723.88;4988059;28;20138;-62
2022/04/15 01:05:27;;;;;;;23.25;4.35;;;;;;;4.33;69.74;99717.31;4987811;28;20046;-63
2022/04/15 01:07:55;;;;;;;18.73;5.03;;;;;;;4.32;70.04;99720.97;4971428;28;20098;-63
2022/04/15 01:10:22;;;;;;;17.02;4.40;;;;;;;4.37;70.02;99712.59;4955504;28;20058;-61
2022/04/15 01:12:53;;;;;;;25.05;5.13;;;;;;;4.42;69.63;99713.13;4972735;28;20061;-62
2022/04/15 01:15:21;;;;;;;18.17;4.43;;;;;;;4.53;68.88;99727.47;4973242;28;20054;-63
2022/04/15 01:17:47;;;;;;;18.33;3.92;;;;;;;4.42;69.11;99708.59;4972716;28;20042;-62
2022/04/15 01:20:14;;;;;;;20.23;4.57;;;;;;;4.55;69.12;99714.81;4973062;28;20062;-61
2022/04/15 01:22:44;;;;;;;21.13;4.22;;;;;;;4.60;68.78;99719.81;4972618;28;20201;-63
2022/04/15 01:25:14;;;;;;;16.77;4.13;;;;;;;4.47;68.09;99693.09;4955201;28;20125;-62
2022/04/15 01:27:41;;;;;;;;;;;;;;;4.67;68.43;99709.50;4972986;28;20078;-62
2022/04/15 01:30:20;;;;;;;23.90;4.40;;;;;;;4.57;68.17;99696.81;5003731;28;19960;-63
2022/04/15 01:32:47;;;;;;;23.00;4.97;;;;;;;4.70;68.34;99702.13;4972857;28;20090;-63
2022/04/15 01:35:16;;;;;;;24.33;4.60;;;;;;;4.69;68.33;99704.91;4970831;28;20097;-62
2022/04/15 01:37:43;;;;;;;20.20;5.75;;;;;;;4.68;67.68;99709.41;4972353;28;20050;-62
2022/04/15 01:40:10;;;;;;;24.58;5.07;;;;;;;4.65;67.93;99693.56;4970960;28;20217;-63
2022/04/15 01:42:38;;;;;;;18.77;5.43;;;;;;;4.69;67.40;99710.28;4971042;28;20046;-62
2022/04/15 01:45:05;;;;;;;24.27;5.70;;;;;;;4.77;67.75;99708.72;4972576;28;20100;-62
2022/04/15 01:47:31;;;;;;;22.08;5.13;;;;;;;4.76;68.23;99698.16;4971320;28;20047;-63
2022/04/15 01:49:57;;;;;;;21.85;4.43;;;;;;;4.80;68.26;99702.31;4971215;28;20065;-63
2022/04/15 01:52:23;;;;;;;16.27;4.80;;;;;;;4.82;67.73;99695.00;4972255;28;20057;-63
2022/04/15 01:54:49;;;;;;;18.85;4.85;;;;;;;4.71;67.39;99692.25;4971924;28;20428;-62
2022/04/15 01:57:15;;;;;;;18.17;4.63;;;;;;;4.66;67.92;99694.44;4970664;28;20544;-62
2022/04/15 01:59:42;;;;;;;17.83;5.30;;;;;;;4.64;67.88;99685.63;4972105;28;20406;-65
2022/04/15 02:02:07;;;;;;;22.70;4.65;;;;;;;4.73;67.84;99693.00;4954749;28;20439;-61
2022/04/15 02:04:34;;;;;;;14.75;4.10;;;;;;;4.75;67.50;99688.38;4972037;28;20053;-63
2022/04/15 02:07:01;;;;;;;25.15;4.57;;;;;;;4.73;67.95;99696.53;4970410;28;20157;-62
2022/04/15 02:09:27;;;;;;;20.00;4.63;;;;;;;4.69;68.09;99694.22;4972145;28;20049;-61
2022/04/15 02:11:53;;;;;;;17.55;4.68;;;;;;;4.55;67.86;99697.88;4971507;28;20137;-63
2022/04/15 02:14:19;;;;;;;25.50;4.65;;;;;;;4.41;68.44;99674.78;4971871;28;20137;-61
2022/04/15 02:16:46;;;;;;;23.13;4.55;;;;;;;4.23;68.38;99654.72;4970160;28;20055;-62
2022/04/15 02:19:12;;;;;;;15.13;3.63;;;;;;;4.32;67.93;99643.38;4970272;28;20042;-63
2022/04/15 02:21:38;;;;;;;19.58;3.53;;;;;;;4.55;68.86;99682.69;4971312;28;20061;-63
2022/04/15 02:24:04;;;;;;;19.75;3.78;;;;;;;4.49;68.45;99672.41;4971612;28;20051;-61
2022/04/15 02:26:30;;;;;;;14.48;3.00;;;;;;;4.42;68.96;99687.19;4973085;28;20054;-64
2022/04/15 02:28:56;;;;;;;16.85;3.72;;;;;;;4.42;68.86;99692.56;4956142;28;20050;-65
2022/04/15 02:31:22;;;;;;;19.33;4.22;;;;;;;4.41;67.74;99690.84;4990571;28;20137;-62
2022/04/15 02:33:48;;;;;;;21.13;4.75;;;;;;;4.52;68.27;99688.25;4989552;28;20129;-62
2022/04/15 02:36:14;;;;;;;15.60;4.55;;;;;;;4.54;69.54;99694.34;4973668;28;20054;-63
2022/04/15 02:38:39;;;;;;;23.83;4.57;;;;;;;4.55;68.78;99688.03;4973175;28;20130;-63
2022/04/15 02:41:06;;;;;;;22.92;4.70;;;;;;;4.54;68.50;99689.00;4991007;28;20057;-63
2022/04/15 02:43:33;;;;;;;24.25;4.82;;;;;;;4.54;68.24;99693.50;4991009;28;20046;-63
2022/04/15 02:46:03;;;;;;;23.42;5.18;;;;;;;4.66;68.02;99694.44;4973199;28;20161;-63
2022/04/15 02:48:29;;;;;;;;;;;;;;;4.58;68.30;99698.53;4989968;28;20611;-63
2022/04/15 02:50:54;;;;;;;22.70;5.07;;;;;;;4.63;68.08;99692.81;4973039;28;20016;-63
2022/04/15 02:53:21;;;;;;;19.95;4.68;;;;;;;4.62;66.02;99692.94;4988964;28;20038;-63
2022/04/15 02:55:46;;;;;;;21.73;4.97;;;;;;;4.35;66.26;99676.13;4989012;28;20046;-63
2022/04/15 02:58:12;;;;;;;17.02;5.28;;;;;;;4.43;66.03;99694.28;4956428;28;20217;-64
2022/04/15 03:00:38;;;;;;;24.30;6.65;;;;;;;4.43;66.42;99704.16;4973054;28;20053;-62
2022/04/15 03:03:04;;;;;;;25.75;5.75;;;;;;;4.42;66.83;99699.72;4972566;28;20042;-64
2022/04/15 03:05:30;;;;;;;30.35;5.70;;;;;;;4.56;67.64;99703.13;4973084;28;20090;-61
2022/04/15 03:07:56;;;;;;;29.40;6.25;;;;;;;4.58;66.52;99692.31;4989211;28;20100;-66
2022/04/15 03:10:22;;;;;;;40.55;6.47;;;;;;;4.56;68.09;99673.66;4972886;28;20116;-62
2022/04/15 03:12:49;;;;;;;34.33;5.22;;;;;;;4.73;68.18;99696.53;4972700;28;20046;-63
2022/04/15 03:15:15;;;;;;;24.83;6.55;;;;;;;4.79;68.09;99695.22;4990447;28;20049;-63
2022/04/15 03:17:41;;;;;;;20.33;5.32;;;;;;;4.74;65.90;99686.69;4972994;28;20050;-62
2022/04/15 03:20:08;;;;;;;30.08;6.45;;;;;;;4.81;65.73;99698.66;4990640;28;20465;-62
2022/04/15 03:22:39;;;;;;;23.75;5.60;;;;;;;4.81;64.84;99698.66;4988988;28;20054;-62
2022/04/15 03:25:06;;;;;;;29.80;6.15;;;;;;;4.69;65.16;99670.09;4972687;28;20043;-63
2022/04/15 03:27:32;;;;;;;19.48;6.78;;;;;;;4.84;64.33;99666.28;4988580;28;20550;-63
2022/04/15 03:29:58;;;;;;;30.27;5.97;;;;;;;5.19;64.55;99684.19;4988667;28;20050;-62
2022/04/15 03:32:24;;;;;;;24.98;4.85;;;;;;;5.40;64.33;99687.06;4988855;28;20043;-64
2022/04/15 03:34:54;;;;;;;34.65;5.28;;;;;;;5.56;63.75;99685.78;4972448;28;20541;-62
2022/04/15 03:37:20;;;;;;;22.63;5.82;;;;;;;5.88;63.79;99694.97;4988352;28;20069;-64
2022/04/15 03:39:46;;;;;;;31.15;5.50;;;;;;;6.28;61.02;99688.16;4989568;28;20422;-63
2022/04/15 03:42:12;;;;;;;31.45;6.90;;;;;;;6.32;60.38;99683.41;4976177;28;20042;-61
2022/04/15 03:44:38;;;;;;;23.65;5.60;;;;;;;6.68;58.64;99695.69;4993358;28;20054;-63
2022/04/15 03:47:04;;;;;;;25.55;5.35;;;;;;;6.85;58.82;99694.31;4992237;28;20113;-64
2022/04/15 03:49:30;;;;;;;19.35;5.78;;;;;;;7.09;57.87;99691.41;4992354;28;20108;-63
2022/04/15 03:51:56;;;;;;;33.83;6.97;;;;;;;7.12;57.20;99672.34;4993760;28;20046;-64
2022/04/15 03:54:22;;;;;;;19.40;5.07;;;;;;;7.21;56.78;99684.19;4975624;28;20393;-62
2022/04/15 03:56:48;;;;;;;32.47;5.88;;;;;;;7.10;57.10;99684.22;4991852;28;20557;-63
2022/04/15 03:59:14;;;;;;;24.65;5.53;;;;;;;7.09;57.33;99682.50;4975797;28;20058;-64
2022/04/15 04:01:39;;;;;;;17.52;5.22;;;;;;;7.21;56.72;99687.72;4975305;28;20042;-62
2022/04/15 04:04:05;;;;;;;26.15;5.95;;;;;;;7.47;54.90;99687.34;4992091;28;20181;-64
2022/04/15 04:06:31;;;;;;;32.42;6.65;;;;;;;7.46;54.76;99680.28;4991796;28;20482;-64
2022/04/15 04:08:57;;;;;;;19.83;5.50;;;;;;;7.35;54.72;99670.41;4991889;28;20042;-64
2022/04/15 04:11:23;;;;;;;26.30;6.25;;;;;;;7.41;54.01;99688.69;4991568;28;20516;-65
2022/04/15 04:13:49;;;;;;;26.08;6.15;;;;;;;7.30;53.79;99680.69;4992001;28;20141;-64
2022/04/15 04:16:17;;;;;;;27.55;6.32;;;;;;;6.95;53.61;99676.47;4975764;28;20084;-64
2022/04/15 04:18:43;;;;;;;25.02;5.85;;;;;;;6.75;54.96;99666.50;4975970;28;20050;-64
2022/04/15 04:21:09;;;;;;;28.90;6.72;;;;;;;6.73;55.97;99665.78;4991602;28;20266;-64
2022/04/15 04:23:36;;;;;;;43.05;8.88;;;;;;;6.90;56.31;99673.28;4975244;28;20054;-65
2022/04/15 04:26:03;;;;;;;31.13;7.90;;;;;;;6.94;55.91;99669.34;4991759;28;20069;-63
2022/04/15 04:28:29;;;;;;;27.55;6.75;;;;;;;6.71;55.85;99651.59;4992706;28;20046;-64
2022/04/15 04:30:55;;;;;;;25.45;6.35;;;;;;;6.82;55.12;99670.38;4992645;28;20410;-63
2022/04/15 04:33:21;;;;;;;27.80;7.50;;;;;;;6.91;54.87;99663.38;4975506;28;20159;-64
2022/04/15 04:35:47;;;;;;;31.45;7.82;;;;;;;6.87;54.83;99673.53;4943132;28;20058;-64
2022/04/15 04:38:13;;;;;;;27.98;7.65;;;;;;;7.05;55.71;99670.28;4974618;28;20471;-64
2022/04/15 04:40:40;;;;;;;36.40;7.35;;;;;;;6.98;55.18;99659.19;4991608;28;20136;-63
2022/04/15 04:43:06;;;;;;;37.78;8.82;;;;;;;7.04;55.50;99665.91;4992935;28;20525;-64
2022/04/15 04:45:33;;;;;;;44.00;7.68;;;;;;;6.93;55.72;99667.66;4991318;28;20042;-63
2022/04/15 04:48:03;;;;;;;31.70;8.45;;;;;;;7.03;54.83;99656.16;4990852;28;20054;-63
2022/04/15 04:50:29;;;;;;;25.90;7.35;;;;;;;6.86;54.48;99647.66;4958471;28;20141;-64
2022/04/15 04:52:56;;;;;;;40.10;8.63;;;;;;;6.97;55.82;99655.66;4990660;28;20148;-64
2022/04/15 04:55:22;;;;;;;27.10;6.78;;;;;;;7.09;56.19;99666.38;4991179;28;20438;-63
2022/04/15 04:57:47;;;;;;;35.55;7.40;;;;;;;6.88;55.72;99642.16;4975052;28;20466;-65
2022/04/15 05:00:15;;;;;;;28.55;7.43;;;;;;;7.00;55.47;99674.22;4992180;28;20124;-64
2022/04/15 05:02:42;;;;;;;37.13;8.40;;;;;;;7.01;58.58;99670.53;4967837;28;20588;-64
2022/04/15 05:05:09;;;;;;;41.60;8.98;;;;;;;7.15;58.18;99666.72;5009387;28;20486;-64
2022/04/15 05:07:35;;;;;;;34.40;9.30;;;;;;;7.10;58.95;99674.31;5014692;28;20041;-64
2022/04/15 05:10:01;;;;;;;33.13;7.80;;;;;;;7.17;58.83;99670.13;5011170;28;20053;-65
2022/04/15 05:12:26;;;;;;;43.85;9.90;;;;;;;7.34;59.35;99668.69;5025971;28;20048;-67
2022/04/15 05:14:52;;;;;;;29.10;8.35;;;;;;;7.23;59.36;99668.75;4986741;28;20048;-68
2022/04/15 05:17:18;;;;;;;37.10;8.38;;;;;;;7.25;58.74;99656.91;4991417;28;20134;-65
2022/04/15 05:19:44;;;;;;;44.65;7.88;;;;;;;7.36;58.12;99664.06;4999223;28;20080;-65
2022/04/15 05:22:11;;;;;;;41.08;8.60;;;;;;;7.33;57.62;99667.00;5014975;28;20096;-65
2022/04/15 05:24:37;;;;;;;37.28;8.75;;;;;;;7.37;57.72;99665.75;5009393;28;20063;-66
2022/04/15 05:27:04;;;;;;;32.00;7.88;;;;;;;7.36;57.24;99658.66;4988645;28;20165;-65
2022/04/15 05:29:29;;;;;;;32.90;7.63;;;;;;;7.41;56.73;99661.81;4999951;28;20410;-64
2022/04/15 05:31:56;;;;;;;30.13;11.05;;;;;;;7.35;57.22;99653.41;4979020;28;20464;-63
2022/04/15 05:34:23;;;;;;;36.72;11.32;;;;;;;7.39;57.31;99663.78;4993229;28;20692;-64
2022/04/15 05:36:49;;;;;;;26.42;10.02;;;;;;;7.66;57.72;99665.09;4995457;28;20049;-65
2022/04/15 05:39:15;;;;;;;42.83;10.73;;;;;;;7.67;58.71;99672.16;4995144;28;20046;-64
2022/04/15 05:41:41;;;;;;;31.05;10.55;;;;;;;7.81;57.99;99668.28;5008932;28;20042;-65
2022/04/15 05:44:08;;;;;;;33.13;10.05;;;;;;;7.85;58.04;99670.56;4999179;28;20367;-66
2022/04/15 05:46:37;;;;;;;32.67;10.95;;;;;;;7.97;58.58;99664.16;4974761;28;20049;-65
2022/04/15 05:49:05;;;;;;;36.88;11.40;;;;;;;8.21;58.18;99665.66;4994809;28;20049;-64
2022/04/15 05:51:31;;;;;;;28.98;10.88;;;;;;;8.12;58.38;99671.88;5026457;28;20057;-64
2022/04/15 05:53:57;;;;;;;32.85;10.18;;;;;;;8.04;58.31;99640.19;5026290;28;20172;-64
2022/04/15 05:56:23;;;;;;;33.35;10.35;;;;;;;8.21;58.37;99666.50;4986820;28;20155;-64
2022/04/15 05:58:49;;;;;;;25.30;8.63;;;;;;;8.26;56.90;99666.09;5010180;28;20482;-63
2022/04/15 06:01:15;;;;;;;33.50;8.98;;;;;;;8.32;56.88;99654.78;5022179;28;20128;-64
2022/04/15 06:03:40;;;;;;;27.40;7.95;;;;;;;8.31;56.14;99671.94;4991308;28;20045;-65
2022/04/15 06:06:06;;;;;;;36.13;9.20;;;;;;;8.47;55.80;99662.50;5008483;28;20449;-65
2022/04/15 06:08:32;;;;;;;27.92;8.20;;;;;;;8.42;54.84;99639.53;4992911;28;20046;-63
2022/04/15 06:10:59;;;;;;;26.08;6.97;;;;;;;8.41;54.58;99664.78;4997518;28;20412;-64
2022/04/15 06:13:25;;;;;;;26.42;6.65;;;;;;;8.78;52.44;99668.69;5026864;28;20144;-64
2022/04/15 06:15:58;;;;;;;21.13;7.07;;;;;;;8.93;53.90;99668.13;5023679;28;20046;-64
2022/04/15 06:18:34;;;;;;;22.35;5.75;;;;;;;8.99;51.60;99655.91;4983241;28;20514;-63
2022/04/15 06:21:01;;;;;;;18.88;4.00;;;;;;;9.03;49.05;99656.50;4981439;28;20037;-65
2022/04/15 06:23:26;;;;;;;15.73;3.50;;;;;;;9.31;48.16;99661.03;4992633;28;20049;-64
2022/04/15 06:25:53;;;;;;;14.00;4.63;;;;;;;9.61;47.60;99661.84;5008578;28;20040;-65
2022/04/15 06:28:21;;;;;;;19.50;4.70;;;;;;;9.46;47.27;99653.34;5010423;28;20128;-64
2022/04/15 06:30:47;;;;;;;17.23;4.95;;;;;;;9.29;47.32;99657.66;5023077;28;20049;-65
2022/04/15 06:33:18;;;;;;;14.35;3.75;;;;;;;9.69;46.79;99662.00;5022119;28;20502;-65
2022/04/15 06:35:45;;;;;;;17.80;3.92;;;;;;;10.11;46.31;99648.06;4970731;28;20133;-64
2022/04/15 06:38:11;;;;;;;12.23;4.25;;;;;;;10.26;45.62;99660.13;4994660;28;20100;-64
2022/04/15 06:40:38;;;;;;;18.35;4.35;;;;;;;10.91;44.32;99659.19;4993387;28;20042;-64
2022/04/15 06:43:05;;;;;;;16.38;5.28;;;;;;;10.51;44.73;99649.63;4995875;28;20136;-62
2022/04/15 06:45:31;;;;;;;12.52;3.63;;;;;;;10.58;44.24;99656.13;4969518;28;20129;-65
2022/04/15 06:47:57;;;;;;;12.75;3.95;;;;;;;10.84;43.76;99646.28;4994860;28;20454;-64
2022/04/15 06:50:24;;;;;;;12.63;4.43;;;;;;;11.23;42.36;99645.97;4976720;28;20040;-64
2022/04/15 06:52:50;;;;;;;20.95;4.28;;;;;;;11.64;41.01;99638.19;4974989;28;20058;-64
2022/04/15 06:55:16;;;;;;;13.40;3.90;;;;;;;12.20;39.73;99634.13;4994590;28;20609;-64
2022/04/15 06:57:42;;;;;;;12.10;3.10;;;;;;;12.28;38.76;99641.44;4995518;28;20054;-64
2022/04/15 07:00:09;;;;;;;14.88;3.67;;;;;;;12.46;38.42;99638.66;4993634;28;20046;-66
2022/04/15 07:02:35;;;;;;;11.63;3.03;;;;;;;12.85;37.82;99632.69;4960465;28;20406;-64
2022/04/15 07:05:03;;;;;;;12.13;2.85;;;;;;;13.20;36.97;99635.09;4978773;28;20413;-65
2022/04/15 07:07:29;;;;;;;15.63;3.13;;;;;;;13.14;37.40;99627.63;4977682;28;20054;-66
2022/04/15 07:09:55;;;;;;;23.67;3.63;;;;;;;12.86;37.01;99634.38;5004596;28;20038;-65
2022/04/15 07:12:20;;;;;;;11.00;3.08;;;;;;;12.77;37.19;99618.06;4943488;28;20083;-66
2022/04/15 07:14:46;;;;;;;12.32;3.25;;;;;;;12.99;36.05;99613.88;4973392;28;20065;-65
2022/04/15 07:17:12;;;;;;;28.70;3.45;;;;;;;12.74;36.12;99621.13;4997860;28;20481;-65
2022/04/15 07:19:38;;;;;;;19.83;3.53;;;;;;;11.97;36.51;99605.91;4979817;28;20057;-65
2022/04/15 07:22:05;;;;;;;20.83;4.00;;;;;;;12.14;36.66;99623.09;4983158;28;20041;-64
2022/04/15 07:24:33;;;;;;;14.90;3.00;;;;;;;11.90;36.09;99626.53;4995332;28;20042;-66
2022/04/15 07:26:59;;;;;;;14.10;3.05;;;;;;;11.95;36.39;99629.59;4982587;28;20128;-65
2022/04/15 07:29:26;;;;;;;14.85;2.95;;;;;;;11.88;35.92;99618.53;5030064;28;20096;-64
2022/04/15 07:31:52;;;;;;;16.75;3.22;;;;;;;12.02;35.87;99619.81;4995486;28;20037;-64
2022/04/15 07:34:18;;;;;;;14.82;3.45;;;;;;;12.17;36.24;99606.50;5013443;28;20060;-64
2022/04/15 07:36:48;;;;;;;36.65;4.93;;;;;;;12.66;36.36;99612.97;5028824;28;20045;-62
2022/04/15 07:39:14;;;;;;;16.30;3.80;;;;;;;12.41;34.98;99613.91;5030010;28;20056;-65
2022/04/15 07:41:41;;;;;;;12.77;2.92;;;;;;;12.97;34.31;99612.34;4969984;28;20050;-66
2022/04/15 07:44:08;;;;;;;13.27;3.42;;;;;;;13.27;33.86;99603.59;5011620;28;20466;-64
2022/04/15 07:46:35;;;;;;;15.93;3.97;;;;;;;13.34;33.63;99611.03;5020867;28;20083;-65
2022/04/15 07:49:02;;;;;;;17.90;4.15;;;;;;;13.59;33.35;99604.56;5007750;28;20119;-66
2022/04/15 07:51:27;;;;;;;13.40;4.32;;;;;;;12.97;34.13;99604.19;5025098;28;20124;-66
2022/04/15 07:53:53;;;;;;;19.20;3.75;;;;;;;12.93;34.14;99613.69;5029364;28;20533;-65
2022/04/15 07:56:19;;;;;;;40.85;5.40;;;;;;;13.48;34.42;99602.19;4989217;28;20505;-65
2022/04/15 07:58:45;;;;;;;15.05;3.67;;;;;;;13.75;33.04;99599.13;5011527;28;20419;-65
2022/04/15 08:01:10;;;;;;;12.02;3.20;;;;;;;14.16;32.82;99615.31;5012541;28;20046;-65
2022/04/15 08:03:37;;;;;;;25.00;3.53;;;;;;;14.37;31.44;99603.84;4978278;28;20132;-65
2022/04/15 08:06:04;;;;;;;12.95;3.10;;;;;;;14.80;31.24;99608.91;5010764;28;20132;-65
2022/04/15 08:08:29;;;;;;;27.15;3.85;;;;;;;14.38;32.13;99572.91;5010963;28;20078;-63
2022/04/15 08:10:56;;;;;;;13.65;2.97;;;;;;;14.35;31.76;99599.59;5010812;28;20556;-63
2022/04/15 08:13:23;;;;;;;14.23;3.33;;;;;;;14.46;31.13;99596.47;5029172;28;20400;-65
2022/04/15 08:15:55;;;;;;;16.42;2.53;;;;;;;14.82;31.30;99585.09;4993149;28;20128;-65
2022/04/15 08:18:22;;;;;;;9.63;2.65;;;;;;;15.32;30.14;99602.75;5030256;28;20053;-64
2022/04/15 08:20:50;;;;;;;15.05;3.10;;;;;;;15.04;30.54;99600.59;4990772;28;20100;-63
2022/04/15 08:23:19;;;;;;;16.88;2.83;;;;;;;14.76;30.81;99602.97;5008598;28;20089;-65
2022/04/15 08:25:45;;;;;;;12.88;3.63;;;;;;;15.01;30.59;99590.06;5009242;28;20042;-65
2022/04/15 08:28:11;;;;;;;14.70;2.65;;;;;;;15.24;29.98;99572.84;5011838;28;20177;-66
2022/04/15 08:30:38;;;;;;;10.05;2.83;;;;;;;14.35;30.84;99605.03;5009673;28;20073;-65
2022/04/15 08:33:05;;;;;;;56.47;6.85;;;;;;;14.67;30.82;99583.13;5009841;28;20052;-65
2022/04/15 08:35:32;;;;;;;8.13;2.55;;;;;;;14.97;30.57;99582.44;5027550;28;20088;-65
2022/04/15 08:37:58;;;;;;;11.57;2.58;;;;;;;15.06;29.66;99593.06;5011280;28;20140;-65
2022/04/15 08:40:32;;;;;;;12.32;2.45;;;;;;;14.90;29.33;99587.75;5012210;28;20049;-64
2022/04/15 08:43:00;;;;;;;15.38;2.40;;;;;;;14.76;29.71;99588.53;5007956;28;20730;-66
2022/04/15 08:45:27;;;;;;;12.35;2.45;;;;;;;14.94;29.53;99583.63;5012180;28;20073;-66
2022/04/15 08:48:00;;;;;;;15.80;2.60;;;;;;;14.02;30.84;99593.44;4993730;28;20156;-67
2022/04/15 08:50:27;;;;;;;9.65;2.28;;;;;;;14.36;30.63;99584.97;4993951;28;20567;-65
2022/04/15 08:52:54;;;;;;;16.55;3.03;;;;;;;15.38;29.82;99580.22;5005834;28;20505;-65
2022/04/15 08:55:21;;;;;;;19.83;4.35;;;;;;;15.56;28.87;99582.63;5011627;28;20482;-64
2022/04/15 08:57:51;;;;;;;11.13;1.48;;;;;;;14.81;29.42;99577.94;5010090;28;20046;-65
2022/04/15 09:00:19;;;;;;;7.82;1.80;;;;;;;14.39;30.14;99584.63;4992832;28;20038;-64
2022/04/15 09:02:45;;;;;;;9.07;2.05;;;;;;;14.33;30.57;99582.59;5005808;28;20049;-64
2022/04/15 09:05:12;;;;;;;11.32;2.10;;;;;;;13.73;31.73;99576.69;4995232;28;20136;-63
2022/04/15 09:07:38;;;;;;;17.58;2.58;;;;;;;13.88;32.18;99586.84;5013372;28;20050;-67
2022/04/15 09:10:05;;;;;;;9.80;2.10;;;;;;;14.45;31.54;99579.31;4978871;28;20046;-66
2022/04/15 09:12:35;;;;;;;9.65;1.80;;;;;;;14.58;31.69;99570.59;4996184;28;20450;-68
2022/04/15 09:15:12;;;;;;;15.23;2.45;;;;;;;13.98;31.97;99595.66;4995946;28;20052;-65
2022/04/15 09:17:39;;;;;;;11.38;1.58;;;;;;;13.41;33.29;99596.59;5025821;28;20100;-65
2022/04/15 09:20:07;;;;;;;6.10;1.40;;;;;;;12.82;33.86;99584.16;5011586;28;20049;-65
2022/04/15 09:22:33;;;;;;;5.32;1.60;;;;;;;13.53;33.35;99591.69;5011300;28;20054;-66
2022/04/15 09:24:59;;;;;;;16.38;2.53;;;;;;;13.94;33.63;99587.00;5027467;28;20060;-66
2022/04/15 09:27:26;;;;;;;6.78;1.50;;;;;;;14.02;33.24;99588.00;5003408;28;20045;-65
2022/04/15 09:29:54;;;;;;;13.45;1.90;;;;;;;13.45;34.25;99583.53;5007039;28;20528;-65
2022/04/15 09:32:22;;;;;;;8.13;1.75;;;;;;;13.58;34.16;99578.44;5006638;28;20499;-63
2022/04/15 09:35:04;;;;;;;18.48;2.67;;;;;;;13.43;33.86;99582.88;5011267;28;20551;-65
2022/04/15 09:37:37;;;;;;;8.23;1.67;;;;;;;13.64;33.89;99575.03;4995147;28;20127;-66
2022/04/15 09:40:03;;;;;;;6.40;1.48;;;;;;;13.58;34.06;99578.44;4959857;28;20098;-66
2022/04/15 09:42:29;;;;;;;10.38;1.65;;;;;;;13.49;34.27;99565.88;4992855;28;20525;-66
2022/04/15 09:45:00;;;;;;;32.22;3.13;;;;;;;13.60;34.50;99568.25;5012052;28;20044;-67
2022/04/15 09:47:27;;;;;;;16.33;2.75;;;;;;;13.72;34.30;99561.41;4991009;28;20481;-66
2022/04/15 09:49:53;;;;;;;10.82;2.33;;;;;;;13.33;34.26;99565.91;4971761;28;20053;-67
2022/04/15 09:52:25;;;;;;;12.85;2.60;;;;;;;13.13;34.94;99562.66;4988080;28;20056;-65
2022/04/15 09:54:55;;;;;;;15.00;3.13;;;;;;;13.42;34.51;99559.44;4982963;28;20046;-73
2022/04/15 09:57:23;;;;;;;14.75;2.90;;;;;;;13.23;34.87;99555.16;4999651;28;20046;-69
2022/04/15 09:59:49;;;;;;;15.25;2.80;;;;;;;13.07;35.70;99560.63;4979745;28;20391;-67
2022/04/15 10:02:15;;;;;;;16.50;2.90;;;;;;;12.54;36.19;99549.19;4978635;28;20092;-66
2022/04/15 10:04:41;;;;;;;16.10;3.13;;;;;;;12.81;35.90;99566.19;4994047;28;20050;-66
2022/04/15 10:07:08;;;;;;;14.15;3.35;;;;;;;12.53;36.21;99563.78;4969589;28;20498;-66
2022/04/15 10:09:37;;;;;;;13.48;3.83;;;;;;;12.68;36.45;99562.09;4944556;28;20046;-66
2022/04/15 10:12:03;;;;;;;14.23;2.70;;;;;;;12.87;36.47;99565.50;4986970;28;20137;-71
2022/04/15 10:14:30;;;;;;;18.17;5.22;;;;;;;12.98;35.51;99557.03;4974679;28;20502;-70
2022/04/15 10:16:58;;;;;;;30.92;9.63;;;;;;;12.67;36.16;99567.69;4992090;28;20042;-69
2022/04/15 10:19:23;;;;;;;25.10;7.45;;;;;;;12.45;37.48;99561.03;4965414;28;20092;-67
2022/04/15 10:21:50;;;;;;;16.92;5.60;;;;;;;12.54;36.56;99570.88;5011753;28;20069;-66
2022/04/15 10:24:16;;;;;;;23.58;8.68;;;;;;;12.48;36.94;99571.56;5026642;28;20525;-67
2022/04/15 10:26:49;;;;;;;15.43;4.30;;;;;;;12.10;37.05;99568.38;5009250;28;20179;-66
2022/04/15 10:29:15;;;;;;;5.57;1.60;;;;;;;12.29;36.88;99570.84;5007951;28;20115;-65
2022/04/15 10:31:46;;;;;;;9.95;1.70;;;;;;;12.26;36.71;99557.59;4957250;28;20057;-66
2022/04/15 10:34:16;;;;;;;26.48;3.58;;;;;;;12.58;36.81;99556.00;5008898;28;20046;-66
2022/04/15 10:36:50;;;;;;;17.25;2.20;;;;;;;12.69;36.27;99555.69;5013366;28;20037;-66
2022/04/15 10:39:18;;;;;;;8.98;1.98;;;;;;;12.66;36.30;99552.44;5008965;28;20050;-67
2022/04/15 10:41:53;;;;;;;7.57;1.80;;;;;;;12.66;36.04;99547.88;5008650;28;20048;-67
2022/04/15 10:44:33;;;;;;;8.18;1.90;;;;;;;12.90;36.01;99555.16;4993651;28;20500;-66
2022/04/15 10:47:11;;;;;;;14.10;2.08;;;;;;;12.89;36.76;99544.50;4979066;28;20546;-67
2022/04/15 10:49:58;;;;;;;14.57;1.90;;;;;;;12.81;37.32;99550.78;4992255;28;20062;-67
2022/04/15 10:52:26;;;;;;;8.07;1.95;;;;;;;12.93;36.23;99548.56;5002782;28;20080;-66
2022/04/15 10:54:53;;;;;;;13.52;2.58;;;;;;;12.93;36.40;99554.00;5008128;28;20092;-70
2022/04/15 10:57:53;;;;;;;8.38;1.83;;;;;;;12.31;36.80;99511.88;5001198;28;20434;-66
2022/04/15 11:03:20;;;;;;;25.48;8.43;;;;;;;12.13;37.66;99508.44;4994753;28;20073;-66
2022/04/15 11:05:46;;;;;;;13.05;2.40;;;;;;;12.65;36.80;99519.06;5007922;28;20050;-66
2022/04/15 11:08:13;;;;;;;15.80;2.58;;;;;;;13.08;36.69;99533.28;5027378;28;20056;-65
2022/04/15 11:10:40;;;;;;;9.20;2.03;;;;;;;12.79;36.66;99526.50;5007279;28;20065;-65
2022/04/15 11:13:09;;;;;;;11.68;2.33;;;;;;;13.50;35.62;99529.56;5007124;28;20560;-66
2022/04/15 11:15:56;;;;;;;8.43;2.10;;;;;;;13.78;35.37;99527.25;5007833;28;20052;-66
2022/04/15 11:18:21;;;;;;;10.57;2.13;;;;;;;13.42;36.21;99518.69;5025792;28;20045;-66
2022/04/15 11:20:47;;;;;;;8.43;1.90;;;;;;;13.45;35.99;99510.22;5024251;28;20093;-65
2022/04/15 11:23:13;;;;;;;18.40;3.20;;;;;;;14.08;35.35;99517.47;5008423;28;20042;-66
2022/04/15 11:25:45;;;;;;;7.80;2.38;;;;;;;14.36;35.02;99497.94;4959150;28;20494;-66
2022/04/15 11:28:11;;;;;;;11.23;2.35;;;;;;;14.13;36.26;99498.75;5008297;28;20042;-67
2022/04/15 11:30:37;;;;;;;10.75;2.83;;;;;;;14.52;34.00;99489.72;4975312;28;20216;-66
2022/04/15 11:33:04;;;;;;;26.52;3.50;;;;;;;14.58;34.45;99502.59;4990531;28;20137;-67
2022/04/15 11:35:34;;;;;;;89.30;7.65;;;;;;;14.39;34.93;99497.59;5007963;28;20144;-66